createdAt,value
2023-07-18T00:00:01.688Z,94
2023-07-18T00:16:04.169Z,94
2023-07-18T00:31:01.254Z,95
2023-07-18T00:46:03.482Z,95
2023-07-18T01:00:00.410Z,95
2023-07-18T01:16:03.044Z,95
2023-07-18T01:30:59.919Z,95
2023-07-18T01:46:01.693Z,95
2023-07-18T02:00:04.090Z,95
2023-07-18T02:16:01.317Z,95
2023-07-18T02:31:03.439Z,95
2023-07-18T02:46:00.628Z,96
2023-07-18T03:00:04.980Z,96
2023-07-18T03:16:04.427Z,96
2023-07-18T03:31:01.779Z,96
2023-07-18T03:46:03.989Z,96
2023-07-18T04:00:00.717Z,96
2023-07-18T04:16:03.062Z,96
2023-07-18T04:31:00.110Z,96
2023-07-18T04:46:02.463Z,96
2023-07-18T05:00:04.301Z,96
2023-07-18T05:16:03.185Z,96
2023-07-18T05:31:03.677Z,97
2023-07-18T05:46:00.791Z,97
2023-07-18T06:00:02.868Z,97
2023-07-18T06:16:00.140Z,97
2023-07-18T06:31:02.033Z,96
2023-07-18T06:46:04.335Z,95
2023-07-18T07:00:01.456Z,94
2023-07-18T07:16:03.915Z,92
2023-07-18T07:31:00.817Z,90
2023-07-18T07:46:03.237Z,87
2023-07-18T07:59:59.999Z,82
2023-07-18T08:16:02.717Z,82
2023-07-18T08:30:59.833Z,78
2023-07-18T08:46:02.018Z,77
2023-07-18T09:00:03.386Z,74
2023-07-18T09:16:00.670Z,75
2023-07-18T09:31:02.448Z,73
2023-07-18T09:45:59.690Z,73
2023-07-18T10:00:01.937Z,75
2023-07-18T10:16:04.461Z,70
2023-07-18T10:31:01.560Z,71
2023-07-18T10:46:03.710Z,70
2023-07-18T11:00:03.930Z,69
2023-07-18T11:16:05.672Z,70
2023-07-18T11:31:00.277Z,66
2023-07-18T11:46:02.357Z,66
2023-07-18T11:59:59.662Z,69
2023-07-18T12:16:01.713Z,67
2023-07-18T12:31:04.241Z,64
2023-07-18T12:46:01.447Z,65
2023-07-18T13:00:03.208Z,65
2023-07-18T13:16:00.960Z,63
2023-07-18T13:31:02.949Z,63
2023-07-18T14:00:02.279Z,62
2023-07-18T14:15:59.766Z,62
2023-07-18T14:31:02.208Z,62
2023-07-18T14:46:04.658Z,61
2023-07-18T15:00:01.378Z,64
2023-07-18T15:16:06.206Z,66
2023-07-18T15:31:01.038Z,68
2023-07-18T15:46:03.527Z,56
2023-07-18T16:00:00.356Z,71
2023-07-18T16:16:02.643Z,83
2023-07-18T16:30:59.962Z,87
2023-07-18T16:46:02.065Z,89
2023-07-18T17:00:04.017Z,90
2023-07-18T17:16:02.291Z,91
2023-07-18T17:31:03.377Z,92
2023-07-18T17:46:00.732Z,93
2023-07-18T18:00:02.652Z,93
2023-07-18T18:16:08.222Z,94
2023-07-18T18:31:01.876Z,94
2023-07-18T18:46:04.172Z,94
2023-07-18T19:00:01.484Z,94
2023-07-18T19:16:03.641Z,94
2023-07-18T19:31:00.601Z,94
2023-07-18T19:46:02.812Z,94
2023-07-18T20:00:00.122Z,94
2023-07-18T20:16:02.049Z,94
2023-07-18T20:31:04.207Z,93
2023-07-18T20:46:01.330Z,94
2023-07-18T21:00:03.121Z,94
2023-07-18T21:16:01.364Z,94
2023-07-18T21:31:02.577Z,94
2023-07-18T21:45:59.930Z,94
2023-07-18T22:00:01.817Z,95
2023-07-18T22:16:04.270Z,95
2023-07-18T22:31:01.300Z,95
2023-07-18T22:46:03.597Z,95
2023-07-18T23:00:16.929Z,95
2023-07-18T23:16:03.892Z,95
2023-07-18T23:30:59.921Z,95
2023-07-18T23:46:01.839Z,95
